Time;durP1;ratioP1;P1;durP2;ratioP2;P2;SDS_P1;SDS_P2;PMS_P1;PMS_P2;Temp;Humidity;BMP_temperature;BMP_pressure;BME280_temperature;BME280_humidity;BME280_pressure;Samples;Min_cycle;Max_cycle;Signal;HPM_P1;HPM_P2
2022/09/11 00:01:21;;;;;;;7.37;4.30;;;16.00;99.90;;;;;;5047380;28;20789;-73
2022/09/11 00:03:47;;;;;;;4.67;4.17;;;16.10;99.90;;;;;;5046557;28;20470;-73
2022/09/11 00:06:21;;;;;;;7.67;4.27;;;16.10;99.90;;;;;;5047599;28;20435;-73
2022/09/11 00:08:50;;;;;;;11.27;4.50;;;16.10;99.90;;;;;;5044153;28;20436;-73
2022/09/11 00:11:19;;;;;;;6.97;4.50;;;16.10;99.90;;;;;;5048658;28;20431;-73
2022/09/11 00:13:47;;;;;;;6.33;4.27;;;16.10;99.90;;;;;;5038493;28;20436;-73
2022/09/11 00:16:25;;;;;;;4.73;4.20;;;16.10;99.90;;;;;;5054630;28;20427;-73
2022/09/11 00:18:52;;;;;;;7.40;4.47;;;16.10;99.90;;;;;;5050150;28;20549;-73
2022/09/11 00:21:19;;;;;;;7.00;4.13;;;16.10;99.90;;;;;;5046356;28;20905;-73
2022/09/11 00:23:48;;;;;;;9.20;4.03;;;16.00;99.90;;;;;;5049460;28;20458;-73
2022/09/11 00:26:15;;;;;;;6.00;4.40;;;16.10;99.90;;;;;;5030501;28;20447;-73
2022/09/11 00:28:41;;;;;;;9.80;5.03;;;16.10;99.90;;;;;;5038726;28;20454;-73
2022/09/11 00:31:11;;;;;;;14.67;5.53;;;16.10;99.90;;;;;;5047247;28;20415;-73
2022/09/11 00:33:38;;;;;;;8.80;5.00;;;16.10;99.90;;;;;;5048711;28;20655;-73
2022/09/11 00:36:06;;;;;;;8.10;4.37;;;16.10;99.90;;;;;;5048812;28;20423;-73
2022/09/11 00:38:34;;;;;;;9.20;5.00;;;16.00;99.90;;;;;;5046342;28;20842;-73
2022/09/11 00:41:01;;;;;;;8.30;4.73;;;16.10;99.90;;;;;;5038724;28;20505;-73
2022/09/11 00:43:29;;;;;;;11.60;5.40;;;16.10;99.90;;;;;;5046480;28;20517;-73
2022/09/11 00:45:58;;;;;;;12.00;5.47;;;16.10;99.90;;;;;;5047422;28;20462;-73
2022/09/11 00:48:29;;;;;;;7.67;4.63;;;16.10;99.90;;;;;;5052597;28;20498;-73
2022/09/11 00:50:56;;;;;;;6.57;4.47;;;16.10;99.90;;;;;;5047640;28;20458;-73
2022/09/11 00:53:29;;;;;;;8.17;4.57;;;16.20;99.90;;;;;;5053548;28;20407;-73
2022/09/11 00:55:58;;;;;;;6.97;4.70;;;16.10;99.90;;;;;;5051659;28;20447;-73
2022/09/11 00:58:29;;;;;;;9.37;4.97;;;16.10;99.90;;;;;;5053118;28;20502;-73
2022/09/11 01:00:55;;;;;;;10.40;4.53;;;16.10;99.90;;;;;;5048099;28;20488;-73
2022/09/11 01:03:23;;;;;;;9.43;4.70;;;16.10;99.90;;;;;;5047533;28;20460;-73
2022/09/11 01:05:49;;;;;;;7.70;5.10;;;16.00;99.90;;;;;;5048938;28;20439;-73
2022/09/11 01:08:14;;;;;;;9.27;4.53;;;16.00;99.90;;;;;;5051815;28;20581;-73
2022/09/11 01:11:10;;;;;;;10.90;5.83;;;16.00;99.90;;;;;;5051808;28;20442;-73
2022/09/11 01:13:46;;;;;;;10.90;6.07;;;16.00;99.90;;;;;;5050705;28;20739;-74
2022/09/11 01:16:49;;;;;;;8.93;5.17;;;16.00;99.90;;;;;;5057191;28;20513;-73
2022/09/11 01:19:35;;;;;;;12.90;4.80;;;16.10;99.90;;;;;;5046224;28;20419;-73
2022/09/11 01:22:26;;;;;;;11.50;4.57;;;16.10;99.90;;;;;;5046077;28;20426;-73
2022/09/11 01:25:04;;;;;;;11.43;4.63;;;16.10;99.90;;;;;;5050684;28;20463;-73
2022/09/11 01:27:41;;;;;;;5.63;4.60;;;16.10;99.90;;;;;;5052643;28;20437;-73
2022/09/11 01:30:17;;;;;;;11.33;4.60;;;16.10;99.90;;;;;;5045677;28;20418;-73
2022/09/11 01:32:52;;;;;;;6.90;5.07;;;16.10;99.90;;;;;;5049408;28;20801;-72
2022/09/11 01:35:37;;;;;;;5.30;4.50;;;16.10;99.90;;;;;;5051769;28;20434;-73
2022/09/11 01:38:25;;;;;;;5.67;5.07;;;16.20;99.90;;;;;;5048652;28;20432;-73
2022/09/11 01:41:10;;;;;;;7.23;5.10;;;16.20;99.90;;;;;;5049521;28;20463;-73
2022/09/11 01:43:42;;;;;;;7.73;5.30;;;16.20;99.90;;;;;;5040714;28;20460;-73
2022/09/11 01:46:09;;;;;;;6.80;5.70;;;16.20;99.90;;;;;;5044264;28;20473;-73
2022/09/11 01:48:43;;;;;;;11.40;5.30;;;16.20;99.90;;;;;;5043115;28;20432;-73
2022/09/11 01:51:14;;;;;;;8.87;5.43;;;16.30;99.90;;;;;;5044262;28;20418;-73
2022/09/11 01:53:43;;;;;;;9.67;5.53;;;16.30;99.90;;;;;;5050003;28;20441;-73
2022/09/11 01:56:15;;;;;;;9.67;6.00;;;16.30;99.90;;;;;;5051963;28;20428;-73
2022/09/11 01:58:43;;;;;;;7.37;5.73;;;16.30;99.90;;;;;;5048797;28;20922;-73
2022/09/11 02:01:20;;;;;;;9.63;6.03;;;16.30;99.90;;;;;;5051636;28;20414;-73
2022/09/11 02:03:58;;;;;;;13.50;5.90;;;16.30;99.90;;;;;;5041900;28;21026;-73
2022/09/11 02:06:31;;;;;;;6.37;5.77;;;16.30;99.90;;;;;;5052145;28;20420;-73
2022/09/11 02:09:01;;;;;;;13.80;6.60;;;16.40;99.90;;;;;;5050011;28;20427;-73
2022/09/11 02:11:32;;;;;;;8.60;6.63;;;16.40;99.90;;;;;;5051548;28;20504;-73
2022/09/11 02:14:11;;;;;;;10.50;6.20;;;16.40;99.90;;;;;;5042298;28;20446;-72
2022/09/11 02:17:25;;;;;;;10.03;6.40;;;16.50;99.90;;;;;;5058901;28;20855;-73
2022/09/11 02:19:57;;;;;;;9.90;6.20;;;16.40;99.90;;;;;;5048036;28;20419;-73
2022/09/11 02:22:23;;;;;;;11.80;6.37;;;16.40;99.90;;;;;;5051485;28;20416;-73
2022/09/11 02:24:49;;;;;;;15.10;6.30;;;16.50;99.90;;;;;;5050426;28;20466;-72
2022/09/11 02:27:22;;;;;;;13.70;6.23;;;16.50;99.90;;;;;;5045079;28;20526;-73
2022/09/11 02:29:48;;;;;;;9.07;6.30;;;16.60;99.90;;;;;;5047617;28;20470;-73
2022/09/11 02:32:14;;;;;;;11.30;6.00;;;16.60;99.90;;;;;;5044371;28;20442;-73
2022/09/11 02:34:41;;;;;;;9.10;6.80;;;16.60;99.90;;;;;;5040433;28;20177;-73
2022/09/11 02:37:16;;;;;;;9.13;6.63;;;16.60;99.90;;;;;;5048335;28;20204;-73
2022/09/11 02:39:59;;;;;;;11.63;7.00;;;16.70;99.90;;;;;;5051808;28;20764;-73
2022/09/11 02:42:53;;;;;;;10.83;6.50;;;16.70;99.90;;;;;;5045080;28;20436;-73
2022/09/11 02:45:46;;;;;;;11.80;6.17;;;16.70;99.90;;;;;;5057392;28;20478;-72
2022/09/11 02:48:30;;;;;;;9.00;6.23;;;16.70;99.90;;;;;;5048377;28;20423;-73
2022/09/11 02:51:24;;;;;;;9.00;6.33;;;16.80;99.90;;;;;;5048711;28;20433;-73
2022/09/11 02:54:20;;;;;;;7.60;5.87;;;16.80;99.90;;;;;;5050188;28;20485;-73
2022/09/11 02:57:12;;;;;;;8.33;6.43;;;16.80;99.90;;;;;;5049585;28;20497;-73
2022/09/11 02:59:44;;;;;;;11.20;6.70;;;16.90;99.90;;;;;;5050532;28;20412;-73
2022/09/11 03:02:13;;;;;;;8.10;6.40;;;16.80;99.90;;;;;;5048344;28;21110;-73
2022/09/11 03:04:40;;;;;;;11.23;6.60;;;16.90;99.90;;;;;;5043067;28;20459;-73
2022/09/11 03:07:06;;;;;;;11.53;6.23;;;16.80;99.90;;;;;;5044457;28;20598;-73
2022/09/11 03:09:33;;;;;;;6.87;6.07;;;16.80;99.90;;;;;;5045871;28;20419;-73
2022/09/11 03:11:59;;;;;;;8.03;6.27;;;16.80;99.90;;;;;;5047595;28;20415;-73
2022/09/11 03:14:25;;;;;;;10.70;6.20;;;16.80;99.90;;;;;;5039002;28;20496;-72
2022/09/11 03:16:50;;;;;;;8.33;7.00;;;16.70;99.90;;;;;;5054688;28;20989;-72
2022/09/11 03:19:16;;;;;;;11.13;6.57;;;16.70;99.90;;;;;;5044006;28;20189;-72
2022/09/11 03:21:41;;;;;;;14.17;7.13;;;16.70;99.90;;;;;;5050170;28;20260;-72
2022/09/11 03:24:08;;;;;;;12.40;7.50;;;16.70;99.90;;;;;;5044612;28;20212;-72
2022/09/11 03:26:35;;;;;;;8.43;6.87;;;16.60;99.90;;;;;;5049793;28;20193;-72
2022/09/11 03:29:02;;;;;;;9.57;7.03;;;16.70;99.90;;;;;;5044783;28;20471;-72
2022/09/11 03:31:27;;;;;;;9.70;7.33;;;16.70;99.90;;;;;;5049970;28;20419;-73
2022/09/11 03:33:54;;;;;;;10.20;6.97;;;16.60;99.90;;;;;;5042475;28;20436;-72
2022/09/11 03:36:19;;;;;;;9.60;6.93;;;16.70;99.90;;;;;;5049721;28;20242;-72
2022/09/11 03:38:45;;;;;;;9.93;7.10;;;16.60;99.90;;;;;;5049104;28;20439;-72
2022/09/11 03:41:11;;;;;;;10.00;6.97;;;16.60;99.90;;;;;;5047997;28;20177;-72
2022/09/11 03:43:36;;;;;;;15.00;7.37;;;16.60;99.90;;;;;;5040239;28;20490;-73
2022/09/11 03:46:02;;;;;;;9.20;6.33;;;16.60;99.90;;;;;;5053881;28;20189;-72
2022/09/11 03:48:28;;;;;;;9.43;6.73;;;16.70;99.90;;;;;;5057632;28;20173;-72
2022/09/11 03:50:53;;;;;;;9.20;6.50;;;16.70;99.90;;;;;;5042623;28;20794;-71
2022/09/11 03:53:19;;;;;;;11.60;7.10;;;16.70;99.90;;;;;;5048473;28;20175;-72
2022/09/11 03:55:45;;;;;;;7.53;6.73;;;16.70;99.90;;;;;;5037612;28;20205;-72
2022/09/11 03:58:11;;;;;;;7.80;6.87;;;16.70;99.90;;;;;;5048894;28;20529;-72
2022/09/11 04:00:42;;;;;;;11.00;6.30;;;16.80;99.90;;;;;;5047406;28;20180;-72
2022/09/11 04:03:09;;;;;;;7.27;6.50;;;16.80;99.90;;;;;;5048349;28;20477;-72
2022/09/11 04:05:35;;;;;;;10.57;6.20;;;16.90;99.90;;;;;;5049265;28;20486;-72
2022/09/11 04:08:01;;;;;;;8.13;6.90;;;17.00;99.90;;;;;;5048682;28;20439;-72
2022/09/11 04:10:26;;;;;;;7.80;6.90;;;17.00;99.90;;;;;;5049251;28;20174;-73
2022/09/11 04:12:52;;;;;;;8.27;7.47;;;17.00;99.90;;;;;;5044509;28;20705;-72
2022/09/11 04:15:17;;;;;;;10.77;7.30;;;17.00;99.90;;;;;;5043280;28;20201;-72
2022/09/11 04:17:43;;;;;;;10.33;7.17;;;17.10;99.90;;;;;;5060159;28;20228;-72
2022/09/11 04:20:09;;;;;;;12.03;7.00;;;17.10;99.90;;;;;;5049386;28;20169;-72
2022/09/11 04:22:34;;;;;;;7.60;6.83;;;17.00;96.70;;;;;;5046222;28;20205;-72
2022/09/11 04:25:00;;;;;;;8.30;6.87;;;17.10;99.90;;;;;;5049906;28;20228;-72
2022/09/11 04:27:26;;;;;;;8.03;7.23;;;17.10;99.90;;;;;;5046301;28;20184;-72
2022/09/11 04:29:52;;;;;;;12.40;6.93;;;17.10;96.50;;;;;;5045701;28;20490;-73
2022/09/11 04:32:17;;;;;;;8.87;6.43;;;17.10;96.90;;;;;;5046158;28;20186;-72
2022/09/11 04:34:43;;;;;;;7.60;6.90;;;17.00;96.60;;;;;;5040941;28;20177;-72
2022/09/11 04:37:10;;;;;;;9.17;6.83;;;17.10;96.20;;;;;;5047170;28;20235;-72
2022/09/11 04:39:36;;;;;;;12.83;7.00;;;17.10;97.70;;;;;;5049950;28;20299;-72
2022/09/11 04:42:03;;;;;;;13.77;7.80;;;17.00;98.20;;;;;;5039756;28;20834;-73
2022/09/11 04:44:28;;;;;;;11.10;7.20;;;17.00;96.00;;;;;;5035013;28;20202;-72
2022/09/11 04:46:55;;;;;;;9.33;7.23;;;17.00;99.90;;;;;;5045136;28;20494;-72
2022/09/11 04:49:21;;;;;;;9.67;7.20;;;17.00;98.00;;;;;;5048402;28;20223;-72
2022/09/11 04:51:46;;;;;;;8.43;6.50;;;17.00;99.20;;;;;;5045690;28;20837;-73
2022/09/11 04:54:16;;;;;;;12.73;6.90;;;17.00;97.60;;;;;;5049713;28;20173;-73
2022/09/11 04:56:42;;;;;;;10.03;6.77;;;16.90;95.10;;;;;;5042374;28;20201;-71
2022/09/11 04:59:18;;;;;;;10.80;7.50;;;16.90;95.30;;;;;;5038606;28;20481;-73
2022/09/11 05:01:45;;;;;;;7.83;7.00;;;16.80;99.90;;;;;;5037172;28;20213;-72
2022/09/11 05:04:11;;;;;;;14.27;7.90;;;16.70;99.90;;;;;;5039896;28;20474;-72
2022/09/11 05:06:38;;;;;;;9.10;7.20;;;16.70;99.90;;;;;;5047573;28;20802;-73
2022/09/11 05:09:06;;;;;;;11.47;7.20;;;16.70;99.90;;;;;;5047504;28;20427;-72
2022/09/11 05:11:32;;;;;;;10.07;7.73;;;16.70;99.90;;;;;;5027933;28;20981;-72
2022/09/11 05:13:58;;;;;;;12.90;7.70;;;16.80;99.90;;;;;;5042140;28;20934;-72
2022/09/11 05:16:26;;;;;;;9.63;7.70;;;16.80;99.90;;;;;;5053869;28;20441;-73
2022/09/11 05:18:52;;;;;;;11.40;7.60;;;16.90;99.90;;;;;;5048945;28;20759;-73
2022/09/11 05:21:21;;;;;;;9.43;7.60;;;16.90;99.90;;;;;;5049165;28;20407;-73
2022/09/11 05:23:48;;;;;;;10.73;6.97;;;17.00;99.90;;;;;;5046932;28;20455;-72
2022/09/11 05:26:22;;;;;;;8.60;6.67;;;17.00;98.90;;;;;;5049350;28;20794;-72
2022/09/11 05:28:56;;;;;;;13.80;7.53;;;17.00;97.70;;;;;;5046806;28;20466;-72
2022/09/11 05:31:24;;;;;;;13.20;6.70;;;17.00;97.70;;;;;;5042657;28;20424;-72
2022/09/11 05:33:50;;;;;;;11.93;7.90;;;17.00;99.90;;;;;;5033275;28;20427;-73
2022/09/11 05:36:16;;;;;;;11.63;7.63;;;17.10;98.10;;;;;;5032876;28;20528;-72
2022/09/11 05:38:42;;;;;;;8.27;7.40;;;17.10;97.20;;;;;;5035119;28;20934;-73
2022/09/11 05:41:10;;;;;;;10.73;7.90;;;17.10;99.60;;;;;;5052733;28;20563;-72
2022/09/11 05:43:36;;;;;;;9.03;8.10;;;17.20;98.00;;;;;;5047948;28;20406;-72
2022/09/11 05:46:03;;;;;;;11.17;7.90;;;17.20;98.60;;;;;;5049670;28;20933;-75
2022/09/11 05:48:30;;;;;;;10.03;7.83;;;17.50;98.10;;;;;;5048843;28;20428;-74
2022/09/11 05:51:06;;;;;;;9.83;7.83;;;17.40;95.20;;;;;;5049999;28;20422;-73
2022/09/11 05:53:32;;;;;;;9.40;8.17;;;17.50;95.30;;;;;;5045339;28;20431;-75
2022/09/11 05:56:05;;;;;;;13.20;8.10;;;17.50;93.70;;;;;;5052823;28;20436;-74
2022/09/11 05:58:31;;;;;;;9.30;8.33;;;17.60;89.90;;;;;;5048105;28;20436;-74
2022/09/11 06:01:08;;;;;;;9.93;7.13;;;17.50;91.90;;;;;;5051259;28;20505;-74
2022/09/11 06:03:35;;;;;;;12.80;7.90;;;17.50;90.10;;;;;;5044932;28;20535;-74
2022/09/11 06:06:02;;;;;;;9.53;7.77;;;17.50;82.00;;;;;;5043266;28;20442;-74
2022/09/11 06:08:29;;;;;;;8.40;7.57;;;17.50;84.00;;;;;;5043197;28;20803;-75
2022/09/11 06:10:57;;;;;;;8.60;7.70;;;17.50;81.20;;;;;;5052361;28;20411;-75
2022/09/11 06:13:34;;;;;;;11.20;8.20;;;17.50;85.50;;;;;;5046032;28;20424;-74
2022/09/11 06:16:01;;;;;;;14.13;8.80;;;17.40;91.00;;;;;;5052289;28;20423;-75
2022/09/11 06:18:28;;;;;;;12.13;8.53;;;17.20;89.80;;;;;;5050484;28;21028;-74
2022/09/11 06:20:57;;;;;;;9.67;8.50;;;17.20;92.90;;;;;;5046881;28;20451;-74
2022/09/11 06:23:24;;;;;;;13.87;8.53;;;17.30;91.70;;;;;;5047428;28;20460;-74
2022/09/11 06:25:52;;;;;;;11.67;8.10;;;17.30;90.40;;;;;;5036825;28;20460;-74
2022/09/11 06:28:22;;;;;;;9.07;8.17;;;17.30;90.30;;;;;;5035204;28;20958;-73
2022/09/11 06:30:52;;;;;;;9.10;8.20;;;17.20;90.70;;;;;;5046191;28;20404;-75
2022/09/11 06:33:19;;;;;;;11.37;8.30;;;17.20;93.00;;;;;;5047742;28;20435;-74
2022/09/11 06:36:02;;;;;;;10.23;8.63;;;17.20;91.70;;;;;;5051170;28;20834;-74
2022/09/11 06:38:30;;;;;;;11.63;8.70;;;17.20;91.30;;;;;;5048734;28;20432;-74
2022/09/11 06:40:56;;;;;;;11.47;8.67;;;17.10;93.70;;;;;;5043595;28;20524;-75
2022/09/11 06:43:22;;;;;;;11.90;9.03;;;17.10;93.30;;;;;;5034433;28;20464;-74
2022/09/11 06:45:47;;;;;;;10.77;8.63;;;17.20;94.60;;;;;;5046366;28;20217;-76
2022/09/11 06:48:17;;;;;;;10.95;8.90;;;17.20;94.20;;;;;;5055621;28;20432;-75
2022/09/11 06:50:43;;;;;;;10.03;8.20;;;17.30;92.80;;;;;;5051458;28;20177;-76
2022/09/11 06:53:09;;;;;;;15.23;8.33;;;17.50;92.20;;;;;;5050117;28;20926;-77
2022/09/11 06:55:35;;;;;;;11.47;8.50;;;17.60;84.90;;;;;;5039996;28;20461;-77
2022/09/11 06:58:01;;;;;;;11.90;9.33;;;17.80;84.00;;;;;;5051348;28;20408;-77
2022/09/11 07:00:27;;;;;;;8.70;7.90;;;18.00;81.80;;;;;;5047132;28;20181;-76
2022/09/11 07:02:53;;;;;;;13.10;8.43;;;18.20;74.80;;;;;;5048340;28;20807;-77
2022/09/11 07:05:24;;;;;;;9.50;8.50;;;18.30;69.20;;;;;;5045604;28;20470;-78
2022/09/11 07:07:52;;;;;;;9.13;8.23;;;18.40;66.30;;;;;;5048288;28;20323;-78
2022/09/11 07:10:18;;;;;;;9.30;7.73;;;18.50;59.70;;;;;;5044930;28;20434;-77
2022/09/11 07:12:43;;;;;;;12.37;9.17;;;18.70;57.30;;;;;;5047930;28;20863;-77
2022/09/11 07:15:10;;;;;;;11.00;8.87;;;18.70;45.40;;;;;;5040535;28;20490;-78
2022/09/11 07:17:35;;;;;;;10.30;8.60;;;18.80;49.90;;;;;;5045080;28;20185;-77
2022/09/11 07:20:06;;;;;;;11.10;9.17;;;18.90;45.50;;;;;;5048002;28;20427;-75
2022/09/11 07:22:33;;;;;;;10.47;9.03;;;19.00;45.50;;;;;;5046983;28;20177;-79
2022/09/11 07:24:59;;;;;;;13.73;9.90;;;19.10;45.60;;;;;;5048268;28;20455;-77
2022/09/11 07:27:25;;;;;;;10.00;8.60;;;19.30;45.80;;;;;;5046035;28;20833;-75
2022/09/11 07:29:51;;;;;;;11.70;9.10;;;19.40;45.80;;;;;;5042364;28;20456;-74
2022/09/11 07:32:16;;;;;;;11.40;8.80;;;19.50;40.20;;;;;;5041955;28;20435;-75
2022/09/11 07:34:42;;;;;;;10.90;8.53;;;19.50;34.50;;;;;;5048962;28;20487;-76
2022/09/11 07:37:07;;;;;;;11.20;9.23;;;19.40;45.80;;;;;;5039410;28;20209;-75
2022/09/11 07:39:33;;;;;;;11.17;8.70;;;19.40;45.90;;;;;;5042044;28;20192;-74
2022/09/11 07:41:58;;;;;;;12.67;9.20;;;19.50;45.90;;;;;;5041313;28;20280;-75
2022/09/11 07:44:24;;;;;;;13.20;10.17;;;19.70;39.90;;;;;;5039274;28;20201;-74
2022/09/11 07:46:50;;;;;;;11.77;8.70;;;19.70;41.10;;;;;;5041873;28;20300;-75
2022/09/11 07:49:16;;;;;;;12.73;9.10;;;19.70;41.50;;;;;;5036160;28;20643;-78
2022/09/11 07:51:42;;;;;;;12.27;9.47;;;19.80;40.30;;;;;;5045078;28;20655;-75
2022/09/11 07:54:11;;;;;;;12.10;8.83;;;19.90;35.70;;;;;;5044815;28;20453;-74
2022/09/11 07:56:36;;;;;;;10.13;8.33;;;20.20;36.20;;;;;;5048808;28;20432;-74
2022/09/11 07:59:07;;;;;;;11.00;8.70;;;20.40;25.50;;;;;;5042203;28;20446;-75
2022/09/11 08:01:33;;;;;;;12.13;8.67;;;20.60;26.20;;;;;;5039706;28;20177;-74
2022/09/11 08:04:01;;;;;;;13.33;9.00;;;20.70;21.90;;;;;;5049784;28;20876;-74
2022/09/11 08:06:28;;;;;;;11.67;9.30;;;20.70;18.80;;;;;;5050477;28;20930;-75
2022/09/11 08:08:56;;;;;;;12.63;8.70;;;20.60;22.00;;;;;;5051068;28;20490;-75
2022/09/11 08:11:23;;;;;;;10.77;9.00;;;20.60;16.00;;;;;;5049285;28;20414;-74
2022/09/11 08:13:53;;;;;;;13.40;9.30;;;20.70;24.20;;;;;;5051461;28;20427;-74
2022/09/11 08:16:20;;;;;;;12.47;9.50;;;20.80;20.70;;;;;;5062531;28;20435;-74
2022/09/11 08:18:47;;;;;;;14.03;7.80;;;21.00;17.90;;;;;;5044957;28;20436;-74
2022/09/11 08:21:13;;;;;;;17.13;7.70;;;21.70;5.40;;;;;;5030260;28;20415;-73
2022/09/11 08:23:41;;;;;;;11.00;8.00;;;22.30;1.00;;;;;;5030862;28;20558;-74
2022/09/11 08:26:13;;;;;;;9.30;8.30;;;22.60;1.00;;;;;;5033749;28;20436;-75
2022/09/11 08:28:41;;;;;;;10.47;7.63;;;23.10;1.00;;;;;;5049442;28;20841;-75
2022/09/11 08:31:07;;;;;;;10.43;7.50;;;23.90;1.00;;;;;;5046533;28;20415;-74
2022/09/11 08:33:33;;;;;;;12.30;8.43;;;24.40;1.00;;;;;;5050354;28;20897;-74
2022/09/11 08:35:59;;;;;;;11.33;7.30;;;24.50;1.00;;;;;;5050262;28;20192;-74
2022/09/11 08:38:25;;;;;;;10.63;9.03;;;25.20;1.00;;;;;;5049218;28;20180;-75
2022/09/11 08:40:50;;;;;;;10.20;8.70;;;25.50;1.00;;;;;;5048110;28;20431;-75
2022/09/11 08:43:34;;;;;;;10.80;8.90;;;25.60;1.00;;;;;;5048365;28;20180;-75
2022/09/11 08:46:03;;;;;;;10.60;9.33;;;25.20;1.00;;;;;;5062043;28;20180;-74
2022/09/11 08:48:46;;;;;;;10.50;7.10;;;25.20;1.00;;;;;;5070336;28;20401;-75
2022/09/11 08:51:15;;;;;;;9.93;7.80;;;25.30;1.00;;;;;;5069873;28;20398;-75
2022/09/11 08:53:40;;;;;;;10.70;8.63;;;24.90;1.00;;;;;;5070614;28;20881;-75
2022/09/11 08:56:11;;;;;;;9.53;8.40;;;24.40;1.00;;;;;;5047884;28;20580;-74
2022/09/11 08:59:11;;;;;;;8.80;7.90;;;23.90;1.00;;;;;;5030655;28;20177;-74
2022/09/11 09:01:45;;;;;;;17.73;10.50;;;23.20;1.00;;;;;;5029952;28;20404;-74
2022/09/11 09:04:26;;;;;;;10.30;9.20;;;22.60;1.00;;;;;;5030101;28;20461;-75
2022/09/11 09:07:04;;;;;;;13.87;10.27;;;22.30;1.00;;;;;;5033906;28;20428;-74
2022/09/11 09:10:20;;;;;;;13.47;9.83;;;22.10;1.00;;;;;;5034369;28;20415;-74
2022/09/11 09:13:15;;;;;;;15.10;10.67;;;22.20;1.00;;;;;;5031459;28;20455;-74
2022/09/11 09:16:16;;;;;;;11.27;10.07;;;22.30;1.00;;;;;;5056982;28;20427;-74
2022/09/11 09:19:02;;;;;;;12.53;10.00;;;22.40;1.00;;;;;;5052652;28;20408;-75
2022/09/11 09:21:41;;;;;;;14.97;11.00;;;22.70;1.00;;;;;;5053337;28;20403;-75
2022/09/11 09:24:20;;;;;;;13.23;9.87;;;23.40;1.00;;;;;;5053585;28;20936;-75
2022/09/11 09:26:55;;;;;;;11.50;10.20;;;24.10;1.00;;;;;;5040184;28;20863;-74
2022/09/11 09:29:23;;;;;;;13.20;9.30;;;24.50;1.00;;;;;;5035145;28;20925;-74
2022/09/11 09:31:52;;;;;;;12.87;10.27;;;24.40;1.00;;;;;;5033715;28;20411;-74
2022/09/11 09:34:23;;;;;;;13.17;10.90;;;24.30;1.00;;;;;;5036057;28;20410;-74
2022/09/11 09:37:02;;;;;;;12.73;10.70;;;23.60;1.00;;;;;;5034655;28;21166;-74
2022/09/11 09:39:28;;;;;;;12.27;10.90;;;22.80;1.00;;;;;;5040368;28;20954;-75
2022/09/11 09:42:19;;;;;;;12.37;10.50;;;22.10;1.00;;;;;;5044657;28;20525;-74
2022/09/11 09:45:22;;;;;;;13.03;11.20;;;21.60;1.00;;;;;;5047039;28;20205;-75
2022/09/11 09:47:48;;;;;;;13.53;10.07;;;21.20;1.00;;;;;;5040231;28;20421;-74
2022/09/11 09:50:28;;;;;;;14.03;11.80;;;21.00;1.00;;;;;;5044522;28;20910;-74
2022/09/11 09:53:26;;;;;;;14.60;12.43;;;20.80;1.00;;;;;;5045339;28;20177;-73
2022/09/11 09:55:53;;;;;;;22.07;12.50;;;20.60;1.00;;;;;;5052080;28;20422;-74
2022/09/11 09:58:30;;;;;;;23.80;13.43;;;20.50;1.00;;;;;;5049585;28;20420;-75
2022/09/11 10:00:56;;;;;;;15.57;12.83;;;20.40;6.10;;;;;;5052551;28;20502;-74
2022/09/11 10:03:23;;;;;;;15.90;12.00;;;20.20;15.10;;;;;;5051414;28;20506;-75
2022/09/11 10:05:54;;;;;;;13.20;10.97;;;19.90;18.30;;;;;;5051698;28;20247;-74
2022/09/11 10:08:36;;;;;;;14.30;11.60;;;19.70;14.80;;;;;;5046909;28;20764;-74
2022/09/11 10:11:07;;;;;;;15.43;11.97;;;19.50;24.30;;;;;;5041214;28;20424;-74
2022/09/11 10:13:42;;;;;;;16.90;11.40;;;19.30;24.00;;;;;;5044739;28;20489;-74
2022/09/11 10:16:25;;;;;;;12.50;11.17;;;19.30;23.00;;;;;;5049624;28;20442;-74
2022/09/11 10:18:52;;;;;;;18.10;11.70;;;19.30;30.60;;;;;;5051891;28;20416;-75
2022/09/11 10:21:22;;;;;;;14.67;11.47;;;19.40;32.20;;;;;;5049323;28;20404;-74
2022/09/11 10:23:55;;;;;;;13.40;11.40;;;19.40;22.40;;;;;;5041803;28;20513;-75
2022/09/11 10:26:54;;;;;;;16.27;12.73;;;19.40;28.60;;;;;;5050652;28;20427;-75
2022/09/11 10:29:25;;;;;;;13.60;11.93;;;19.50;31.40;;;;;;5036321;28;20423;-75
2022/09/11 10:31:53;;;;;;;13.13;11.63;;;19.70;37.70;;;;;;5049071;28;20442;-75
2022/09/11 10:34:21;;;;;;;14.43;12.10;;;19.90;28.20;;;;;;5051575;28;20498;-75
2022/09/11 10:37:00;;;;;;;14.50;12.80;;;20.00;29.20;;;;;;5049312;28;20920;-74
2022/09/11 10:39:28;;;;;;;16.30;13.67;;;20.30;26.70;;;;;;5051763;28;20498;-74
2022/09/11 10:41:58;;;;;;;16.73;12.73;;;20.50;21.40;;;;;;5050341;28;20429;-75
2022/09/11 10:44:25;;;;;;;15.83;13.07;;;20.70;13.80;;;;;;5043563;28;20471;-75
2022/09/11 10:47:16;;;;;;;16.07;13.00;;;20.80;12.80;;;;;;5054723;28;20455;-74
2022/09/11 10:49:42;;;;;;;15.83;12.50;;;21.00;8.10;;;;;;5051586;28;20554;-75
2022/09/11 10:52:07;;;;;;;15.87;13.03;;;21.10;13.30;;;;;;5047963;28;20431;-75
2022/09/11 10:54:46;;;;;;;16.40;13.40;;;21.10;7.90;;;;;;5051706;28;20414;-74
2022/09/11 10:57:21;;;;;;;13.57;11.73;;;21.00;1.00;;;;;;5035024;28;20188;-74
2022/09/11 10:59:54;;;;;;;16.57;12.80;;;21.00;4.10;;;;;;5051741;28;20460;-75
2022/09/11 11:02:32;;;;;;;14.10;12.37;;;21.50;3.90;;;;;;5041042;28;20782;-75
2022/09/11 11:05:05;;;;;;;13.60;11.50;;;27.60;1.00;;;;;;5049840;28;21028;-75
2022/09/11 11:07:31;;;;;;;13.90;10.30;;;27.90;1.00;;;;;;5049674;28;20449;-75
2022/09/11 11:09:59;;;;;;;14.00;11.10;;;28.90;1.00;;;;;;5051377;28;20441;-74
2022/09/11 11:12:53;;;;;;;15.70;11.40;;;28.00;1.00;;;;;;5045408;28;20427;-75
2022/09/11 11:15:26;;;;;;;12.17;10.90;;;27.00;1.00;;;;;;5044914;28;20450;-76
2022/09/11 11:18:47;;;;;;;13.50;11.43;;;26.20;1.00;;;;;;5054583;28;20462;-75
2022/09/11 11:21:40;;;;;;;14.47;11.80;;;25.20;1.00;;;;;;5047932;28;20493;-75
2022/09/11 11:24:26;;;;;;;20.00;12.30;;;24.70;1.00;;;;;;5044450;28;20490;-75
2022/09/11 11:27:17;;;;;;;16.70;11.90;;;24.30;1.00;;;;;;5037504;28;20979;-75
2022/09/11 11:29:59;;;;;;;16.23;12.43;;;24.20;1.00;;;;;;5043973;28;20432;-75
2022/09/11 11:32:45;;;;;;;14.43;12.90;;;24.10;1.00;;;;;;5038177;28;20506;-75
2022/09/11 11:35:33;;;;;;;14.67;12.40;;;24.00;1.00;;;;;;5043040;28;21007;-75
2022/09/11 11:38:08;;;;;;;13.47;11.87;;;24.00;1.00;;;;;;5048296;28;20941;-75
2022/09/11 11:41:00;;;;;;;14.07;11.20;;;24.80;1.00;;;;;;5049547;28;20414;-75
2022/09/11 11:43:31;;;;;;;16.47;11.77;;;27.00;1.00;;;;;;5041896;28;20452;-75
2022/09/11 11:46:09;;;;;;;11.83;10.43;;;28.10;1.00;;;;;;5052716;28;20438;-73
2022/09/11 11:48:41;;;;;;;12.70;11.07;;;28.10;1.00;;;;;;5051618;28;20856;-75
2022/09/11 11:51:14;;;;;;;14.77;11.37;;;27.60;1.00;;;;;;5047520;28;20427;-75
2022/09/11 11:53:50;;;;;;;12.97;11.30;;;27.30;1.00;;;;;;5041698;28;20491;-75
2022/09/11 11:56:15;;;;;;;14.00;10.80;;;27.50;1.00;;;;;;5048007;28;20447;-75
2022/09/11 11:59:00;;;;;;;14.80;11.70;;;28.10;1.00;;;;;;5048321;28;20791;-75
2022/09/11 12:01:38;;;;;;;14.57;10.83;;;28.90;1.00;;;;;;5042370;28;20237;-75
2022/09/11 12:04:24;;;;;;;12.73;10.80;;;29.00;1.00;;;;;;5045806;28;20458;-75
2022/09/11 12:06:50;;;;;;;14.40;10.37;;;30.20;1.00;;;;;;5046589;28;20450;-75
2022/09/11 12:09:17;;;;;;;13.33;10.77;;;31.60;1.00;;;;;;5042717;28;20230;-76
2022/09/11 12:11:46;;;;;;;13.20;11.40;;;31.60;1.00;;;;;;5047010;28;20168;-76
2022/09/11 12:14:30;;;;;;;13.90;11.27;;;31.40;1.00;;;;;;5038606;28;20185;-76
2022/09/11 12:16:56;;;;;;;12.43;11.13;;;29.80;1.00;;;;;;5046880;28;20201;-75
2022/09/11 12:19:26;;;;;;;12.53;10.40;;;29.20;1.00;;;;;;5044526;28;20173;-75
2022/09/11 12:21:51;;;;;;;13.13;11.00;;;28.70;1.00;;;;;;5048639;28;20693;-75
2022/09/11 12:24:20;;;;;;;14.10;10.70;;;27.70;1.00;;;;;;5046612;28;20459;-75
2022/09/11 12:26:46;;;;;;;13.47;10.67;;;27.00;1.00;;;;;;5029931;28;20205;-75
2022/09/11 12:29:14;;;;;;;13.10;10.80;;;26.20;1.00;;;;;;5046223;28;20435;-75
2022/09/11 12:32:18;;;;;;;13.20;10.67;;;25.80;1.00;;;;;;5044265;28;20861;-75
2022/09/11 12:34:43;;;;;;;16.90;12.03;;;25.80;1.00;;;;;;5035366;28;20415;-74
2022/09/11 12:37:23;;;;;;;15.80;10.93;;;26.20;1.00;;;;;;5047415;28;20484;-75
2022/09/11 12:39:59;;;;;;;13.97;11.07;;;27.60;1.00;;;;;;5051885;28;20730;-75
2022/09/11 12:42:25;;;;;;;11.13;9.90;;;30.60;1.00;;;;;;5046945;28;20453;-75
2022/09/11 12:44:50;;;;;;;12.10;10.80;;;31.50;1.00;;;;;;5047687;28;20557;-75
2022/09/11 12:47:33;;;;;;;12.60;11.30;;;30.70;1.00;;;;;;5067584;28;20267;-75
2022/09/11 12:50:15;;;;;;;14.00;10.87;;;29.40;1.00;;;;;;5046684;28;20171;-76
2022/09/11 12:52:44;;;;;;;14.17;10.93;;;28.20;1.00;;;;;;5051200;28;20164;-76
2022/09/11 12:55:38;;;;;;;14.60;11.00;;;27.30;1.00;;;;;;5045564;28;20451;-76
2022/09/11 12:58:21;;;;;;;16.97;10.50;;;26.80;1.00;;;;;;5041932;28;20426;-75
2022/09/11 13:00:58;;;;;;;11.23;10.03;;;26.40;1.00;;;;;;5048817;28;20945;-75
2022/09/11 13:03:29;;;;;;;13.10;9.47;;;26.30;1.00;;;;;;5052659;28;20912;-75
2022/09/11 13:06:06;;;;;;;13.13;9.77;;;26.90;1.00;;;;;;5049946;28;20956;-75